Time;durP1;ratioP1;P1;durP2;ratioP2;P2;SDS_P1;SDS_P2;PMS_P1;PMS_P2;Temp;Humidity;BMP_temperature;BMP_pressure;BME280_temperature;BME280_humidity;BME280_pressure;Samples;Min_cycle;Max_cycle;Signal;HPM_P1;HPM_P2
2021/04/11 00:01:30;;;;;;;6.83;2.10;;;12.00;93.30;;;;;;5051849;28;20573;-69
2021/04/11 00:03:56;;;;;;;5.63;2.50;;;12.00;92.90;;;;;;5051610;28;20201;-67
2021/04/11 00:06:22;;;;;;;8.27;3.00;;;11.90;92.70;;;;;;5040593;28;20215;-69
2021/04/11 00:08:47;;;;;;;3.20;2.23;;;11.80;93.80;;;;;;5031646;28;20270;-68
2021/04/11 00:11:13;;;;;;;6.03;3.00;;;11.70;93.80;;;;;;5044199;28;20179;-68
2021/04/11 00:13:40;;;;;;;3.07;2.73;;;11.70;94.30;;;;;;5051512;28;20242;-68
2021/04/11 00:16:06;;;;;;;4.70;2.90;;;11.60;94.30;;;;;;5051197;28;20224;-69
2021/04/11 00:18:33;;;;;;;3.57;2.70;;;11.50;95.30;;;;;;5051553;28;20184;-70
2021/04/11 00:21:02;;;;;;;5.73;2.80;;;11.50;95.20;;;;;;5051268;28;20206;-69
2021/04/11 00:23:27;;;;;;;5.30;2.77;;;11.60;95.40;;;;;;5050085;28;20525;-69
2021/04/11 00:25:54;;;;;;;4.17;2.60;;;11.60;95.00;;;;;;5051507;28;20171;-69
2021/04/11 00:28:20;;;;;;;4.60;3.10;;;11.60;94.90;;;;;;5051076;28;20229;-70
2021/04/11 00:30:46;;;;;;;8.77;2.60;;;11.70;95.10;;;;;;5051277;28;20194;-68
2021/04/11 00:33:35;;;;;;;3.00;2.37;;;11.60;95.20;;;;;;5034353;28;20172;-68
2021/04/11 00:36:03;;;;;;;7.33;2.70;;;11.70;95.70;;;;;;5043746;28;20619;-68
2021/04/11 00:38:30;;;;;;;5.57;2.60;;;11.60;95.20;;;;;;5033958;28;20184;-68
2021/04/11 00:40:59;;;;;;;5.33;2.53;;;11.50;95.20;;;;;;5047713;28;20175;-68
2021/04/11 00:43:25;;;;;;;6.47;2.03;;;11.50;96.00;;;;;;5046687;28;20540;-67
2021/04/11 00:46:06;;;;;;;3.77;2.47;;;11.50;95.10;;;;;;5051162;28;20541;-68
2021/04/11 00:48:33;;;;;;;2.80;1.80;;;11.50;94.50;;;;;;5051135;28;20209;-67
2021/04/11 00:51:05;;;;;;;3.43;2.40;;;11.40;94.40;;;;;;5051231;28;20182;-67
2021/04/11 00:53:31;;;;;;;4.90;2.03;;;11.40;95.00;;;;;;5050608;28;20270;-68
2021/04/11 00:55:57;;;;;;;2.63;2.20;;;11.40;94.80;;;;;;5050896;28;20237;-68
2021/04/11 00:58:25;;;;;;;4.30;2.07;;;11.40;94.10;;;;;;5034830;28;20306;-68
2021/04/11 01:00:50;;;;;;;4.37;2.30;;;11.30;94.40;;;;;;5032312;28;20179;-69
2021/04/11 01:03:23;;;;;;;4.27;2.20;;;11.30;95.30;;;;;;5032170;28;20180;-69
2021/04/11 01:05:49;;;;;;;3.40;2.00;;;11.30;95.50;;;;;;5030988;28;20218;-69
2021/04/11 01:08:18;;;;;;;6.87;2.30;;;11.30;95.70;;;;;;5037763;28;20184;-68
2021/04/11 01:10:48;;;;;;;3.03;2.00;;;11.30;96.30;;;;;;5028983;28;20185;-68
2021/04/11 01:13:16;;;;;;;4.87;2.17;;;11.30;96.20;;;;;;5050761;28;20532;-68
2021/04/11 01:15:42;;;;;;;3.07;2.37;;;11.20;96.00;;;;;;5043875;28;20207;-68
2021/04/11 01:18:08;;;;;;;4.60;2.73;;;11.10;95.80;;;;;;5050376;28;20203;-69
2021/04/11 01:20:34;;;;;;;4.97;2.80;;;11.00;96.20;;;;;;5038130;28;20183;-69
2021/04/11 01:23:16;;;;;;;7.77;3.00;;;11.10;97.20;;;;;;5048449;28;20189;-68
2021/04/11 01:25:43;;;;;;;6.13;2.60;;;11.00;96.30;;;;;;5037696;28;20640;-69
2021/04/11 01:28:16;;;;;;;4.40;2.77;;;11.00;97.60;;;;;;5050261;28;20190;-69
2021/04/11 01:30:43;;;;;;;5.97;2.43;;;11.10;97.00;;;;;;5049153;28;20566;-68
2021/04/11 01:33:18;;;;;;;3.77;2.47;;;11.10;96.70;;;;;;5050018;28;20179;-67
2021/04/11 01:35:51;;;;;;;10.07;3.10;;;11.10;96.90;;;;;;5049399;28;20217;-68
2021/04/11 01:38:18;;;;;;;4.40;2.90;;;11.10;98.00;;;;;;5050154;28;20718;-69
2021/04/11 01:41:00;;;;;;;3.73;2.70;;;11.10;97.90;;;;;;5032414;28;20186;-67
2021/04/11 01:43:26;;;;;;;5.17;3.10;;;11.10;97.90;;;;;;5050069;28;20527;-68
2021/04/11 01:45:53;;;;;;;5.87;2.87;;;11.20;98.00;;;;;;5050639;28;20339;-67
2021/04/11 01:48:19;;;;;;;3.13;2.83;;;11.30;98.00;;;;;;5032260;28;20179;-69
2021/04/11 01:50:46;;;;;;;4.07;2.60;;;11.30;99.60;;;;;;5050286;28;20175;-69
2021/04/11 01:53:13;;;;;;;5.20;2.47;;;11.30;99.80;;;;;;5050137;28;20584;-70
2021/04/11 01:55:40;;;;;;;4.97;2.80;;;11.30;99.10;;;;;;5050503;28;20528;-69
2021/04/11 01:58:06;;;;;;;3.40;2.60;;;11.20;99.90;;;;;;5050129;28;20260;-68
2021/04/11 02:00:36;;;;;;;2.73;2.40;;;11.20;99.90;;;;;;5049957;28;20182;-68
2021/04/11 02:03:17;;;;;;;4.60;2.67;;;11.10;99.90;;;;;;5050157;28;20182;-68
2021/04/11 02:05:48;;;;;;;3.73;2.57;;;11.00;99.90;;;;;;5048904;28;20246;-68
2021/04/11 02:08:18;;;;;;;4.37;2.87;;;11.20;99.90;;;;;;5032181;28;20637;-68
2021/04/11 02:10:47;;;;;;;4.47;3.17;;;11.20;99.90;;;;;;5049855;28;20187;-68
2021/04/11 02:13:14;;;;;;;2.43;2.23;;;11.30;99.90;;;;;;5050256;28;20627;-70
2021/04/11 02:15:45;;;;;;;4.23;2.37;;;11.30;99.90;;;;;;5053082;28;20536;-67
2021/04/11 02:18:12;;;;;;;3.67;2.33;;;11.30;99.90;;;;;;5053905;28;20203;-69
2021/04/11 02:20:38;;;;;;;5.47;2.60;;;11.30;99.90;;;;;;5038731;28;20634;-68
2021/04/11 02:23:06;;;;;;;2.87;2.33;;;11.40;99.90;;;;;;5046507;28;20171;-68
2021/04/11 02:25:39;;;;;;;4.03;2.77;;;11.40;99.90;;;;;;5053794;28;20190;-70
2021/04/11 02:28:05;;;;;;;2.97;2.37;;;11.40;99.90;;;;;;5052929;28;20214;-69
2021/04/11 02:30:32;;;;;;;3.67;2.30;;;11.40;99.90;;;;;;5053605;28;20651;-68
2021/04/11 02:32:58;;;;;;;7.77;2.60;;;11.50;99.90;;;;;;5053137;28;20187;-69
2021/04/11 02:35:27;;;;;;;4.03;2.47;;;11.50;99.90;;;;;;5053467;28;20538;-67
2021/04/11 02:37:59;;;;;;;3.40;2.53;;;11.60;99.90;;;;;;5036815;28;20199;-68
2021/04/11 02:40:30;;;;;;;6.63;2.97;;;11.50;99.90;;;;;;5035470;28;20258;-68
2021/04/11 02:42:58;;;;;;;3.23;2.50;;;11.50;99.90;;;;;;5038633;28;20184;-69
2021/04/11 02:45:27;;;;;;;4.20;2.70;;;11.50;99.90;;;;;;5046429;28;20171;-71
2021/04/11 02:47:54;;;;;;;3.03;2.33;;;11.50;99.90;;;;;;5053077;28;20236;-68
2021/04/11 02:50:21;;;;;;;4.20;2.40;;;11.40;99.90;;;;;;5052806;28;20258;-68
2021/04/11 02:52:59;;;;;;;3.73;2.70;;;11.30;99.90;;;;;;5053172;28;20179;-69
2021/04/11 02:55:28;;;;;;;4.33;2.80;;;11.20;99.90;;;;;;5053176;28;20175;-67
2021/04/11 02:57:55;;;;;;;4.83;2.67;;;11.10;99.90;;;;;;5053206;28;20187;-68
2021/04/11 03:00:23;;;;;;;4.93;2.80;;;11.10;99.90;;;;;;5052843;28;20245;-68
2021/04/11 03:02:49;;;;;;;3.40;2.83;;;11.00;99.90;;;;;;5052894;28;20641;-67
2021/04/11 03:05:19;;;;;;;5.67;2.97;;;11.00;99.90;;;;;;5041662;28;20215;-69
2021/04/11 03:07:51;;;;;;;3.60;2.80;;;10.90;99.90;;;;;;5051865;28;20179;-68
2021/04/11 03:10:22;;;;;;;5.23;2.90;;;11.20;99.90;;;;;;5032781;28;20237;-68
2021/04/11 03:12:50;;;;;;;6.40;3.10;;;11.20;99.90;;;;;;5042778;28;20176;-68
2021/04/11 03:15:18;;;;;;;5.60;3.00;;;11.30;99.90;;;;;;5033272;28;20266;-67
2021/04/11 03:17:47;;;;;;;3.80;2.57;;;11.40;99.90;;;;;;5034814;28;20203;-68
2021/04/11 03:20:20;;;;;;;3.50;2.53;;;11.40;99.90;;;;;;5052770;28;20171;-68
2021/04/11 03:22:50;;;;;;;6.03;2.67;;;11.40;99.90;;;;;;5052673;28;20262;-68
2021/04/11 03:25:17;;;;;;;3.27;2.50;;;11.50;99.90;;;;;;5052081;28;20205;-67
2021/04/11 03:28:21;;;;;;;3.20;2.50;;;11.50;98.80;;;;;;5051608;28;20206;-68
2021/04/11 03:30:49;;;;;;;5.03;3.10;;;11.50;98.10;;;;;;5052228;28;20551;-69
2021/04/11 03:33:17;;;;;;;5.07;3.13;;;11.50;97.00;;;;;;5052781;28;20191;-68
2021/04/11 03:35:47;;;;;;;5.50;3.13;;;11.60;96.10;;;;;;5052376;28;20274;-68
2021/04/11 03:38:17;;;;;;;4.37;3.00;;;11.70;96.90;;;;;;5052387;28;20195;-69
2021/04/11 03:40:45;;;;;;;4.30;3.00;;;11.70;96.00;;;;;;5052133;28;20252;-68
2021/04/11 03:43:24;;;;;;;8.40;3.43;;;11.70;95.30;;;;;;5052308;28;20178;-68
2021/04/11 03:45:53;;;;;;;7.57;3.90;;;11.70;95.80;;;;;;5050150;28;20224;-68
2021/04/11 03:48:31;;;;;;;6.93;3.80;;;11.70;95.70;;;;;;5036792;28;20711;-67
2021/04/11 03:51:14;;;;;;;5.40;3.70;;;11.70;95.20;;;;;;5051665;28;20282;-68
2021/04/11 03:53:51;;;;;;;5.27;3.43;;;11.60;95.30;;;;;;5049078;28;20194;-68
2021/04/11 03:56:21;;;;;;;7.13;3.80;;;11.60;95.30;;;;;;5051324;28;20218;-69
2021/04/11 03:58:51;;;;;;;5.30;3.30;;;11.50;95.90;;;;;;5044431;28;20194;-68
2021/04/11 04:01:26;;;;;;;5.97;3.10;;;11.50;96.90;;;;;;5041557;28;20214;-68
2021/04/11 04:03:57;;;;;;;6.77;3.50;;;11.60;96.10;;;;;;5035281;28;20613;-68
2021/04/11 04:06:32;;;;;;;4.03;3.40;;;11.60;96.80;;;;;;5047353;28;20207;-67
2021/04/11 04:08:58;;;;;;;4.00;3.17;;;11.50;96.90;;;;;;5041453;28;20171;-68
2021/04/11 04:11:52;;;;;;;3.47;3.00;;;11.40;98.00;;;;;;5050964;28;20236;-69
2021/04/11 04:14:40;;;;;;;6.47;3.27;;;11.30;99.00;;;;;;5051510;28;20224;-69
2021/04/11 04:17:24;;;;;;;6.57;3.40;;;11.30;98.90;;;;;;5051478;28;20206;-69
2021/04/11 04:20:05;;;;;;;5.23;3.53;;;11.30;99.30;;;;;;5050966;28;20625;-68
2021/04/11 04:23:00;;;;;;;7.00;4.20;;;11.30;98.10;;;;;;5051241;28;20206;-68
2021/04/11 04:25:41;;;;;;;6.47;3.50;;;11.40;98.40;;;;;;5009187;28;20727;-68
2021/04/11 04:28:51;;;;;;;5.87;3.80;;;11.40;97.70;;;;;;5034007;28;20558;-68
2021/04/11 04:31:51;;;;;;;5.60;2.87;;;11.50;99.10;;;;;;5012138;28;20186;-68
2021/04/11 04:34:40;;;;;;;4.20;3.13;;;11.50;99.70;;;;;;5033822;28;20171;-69
2021/04/11 04:37:12;;;;;;;6.97;3.60;;;11.60;98.70;;;;;;5019173;28;20212;-68
2021/04/11 04:39:50;;;;;;;5.67;3.30;;;11.60;97.70;;;;;;5045232;28;20175;-68
2021/04/11 04:42:22;;;;;;;4.20;3.40;;;11.60;98.70;;;;;;5038838;28;20175;-69
2021/04/11 04:44:47;;;;;;;5.13;3.10;;;11.50;98.00;;;;;;5050528;28;20175;-68
2021/04/11 04:47:27;;;;;;;6.90;3.20;;;11.50;98.70;;;;;;5050977;28;20190;-68
2021/04/11 04:49:58;;;;;;;5.37;3.60;;;11.50;98.70;;;;;;5050810;28;20633;-68
2021/04/11 04:52:28;;;;;;;7.20;4.00;;;11.40;98.90;;;;;;5051073;28;20613;-68
2021/04/11 04:55:03;;;;;;;9.77;4.40;;;11.30;98.60;;;;;;5050836;28;20566;-68
2021/04/11 04:57:33;;;;;;;5.87;3.97;;;11.40;98.80;;;;;;5050392;28;20220;-69
2021/04/11 05:00:23;;;;;;;5.87;4.00;;;11.50;97.40;;;;;;5050613;28;20607;-68
2021/04/11 05:03:03;;;;;;;5.30;3.60;;;11.40;97.70;;;;;;5049706;28;20506;-68
2021/04/11 05:05:37;;;;;;;9.80;4.20;;;11.50;97.00;;;;;;5050970;28;20211;-68
2021/04/11 05:08:08;;;;;;;6.33;4.00;;;11.50;97.10;;;;;;5049530;28;20189;-67
2021/04/11 05:10:40;;;;;;;5.53;4.07;;;11.30;97.20;;;;;;5050761;28;20171;-69
2021/04/11 05:13:24;;;;;;;5.30;3.97;;;11.30;97.20;;;;;;5050486;28;20183;-67
2021/04/11 05:15:58;;;;;;;6.73;3.73;;;11.20;97.80;;;;;;5050532;28;20684;-69
2021/04/11 05:18:30;;;;;;;7.23;4.10;;;11.30;98.70;;;;;;5050444;28;20680;-70
2021/04/11 05:21:00;;;;;;;6.33;3.83;;;11.40;98.10;;;;;;5050238;28;20183;-67
2021/04/11 05:23:49;;;;;;;5.17;4.10;;;11.50;98.00;;;;;;5050624;28;20166;-69
2021/04/11 05:26:17;;;;;;;5.27;4.10;;;11.60;97.40;;;;;;5031983;28;20256;-68
2021/04/11 05:29:01;;;;;;;5.80;4.17;;;11.60;97.60;;;;;;5030552;28;20188;-68
2021/04/11 05:31:30;;;;;;;7.77;3.83;;;11.70;96.60;;;;;;5030642;28;20560;-68
2021/04/11 05:33:57;;;;;;;4.83;4.33;;;11.70;96.50;;;;;;5030419;28;20637;-67
2021/04/11 05:36:53;;;;;;;4.77;4.27;;;11.60;96.60;;;;;;5030435;28;20258;-70
2021/04/11 05:39:50;;;;;;;6.90;4.30;;;11.70;96.90;;;;;;5048372;28;20183;-69
2021/04/11 05:42:26;;;;;;;5.70;4.37;;;11.70;96.90;;;;;;5050347;28;20198;-68
2021/04/11 05:45:14;;;;;;;6.90;4.40;;;11.70;96.70;;;;;;5050476;28;20175;-68
2021/04/11 05:48:07;;;;;;;6.50;3.73;;;11.70;97.60;;;;;;5032383;28;20185;-69
2021/04/11 05:50:41;;;;;;;4.90;4.00;;;11.70;98.80;;;;;;5053157;28;20179;-69
2021/04/11 05:53:43;;;;;;;8.00;4.10;;;11.80;97.50;;;;;;5054671;28;20270;-68
2021/04/11 05:56:34;;;;;;;6.80;3.97;;;11.90;97.50;;;;;;5043258;28;20191;-68
2021/04/11 05:59:08;;;;;;;4.67;3.40;;;11.80;97.90;;;;;;5054187;28;20182;-67
2021/04/11 06:01:55;;;;;;;5.93;4.27;;;11.80;97.80;;;;;;5054230;28;20201;-69
2021/04/11 06:04:28;;;;;;;5.40;3.90;;;11.90;97.40;;;;;;5053927;28;20587;-68
2021/04/11 06:07:12;;;;;;;6.00;3.87;;;11.90;97.20;;;;;;5054362;28;20692;-68
2021/04/11 06:09:49;;;;;;;8.27;4.27;;;12.00;96.10;;;;;;5053776;28;20233;-68
2021/04/11 06:12:27;;;;;;;6.10;3.70;;;12.00;96.20;;;;;;5053952;28;20597;-67
2021/04/11 06:15:15;;;;;;;7.10;3.90;;;12.10;96.00;;;;;;5053986;28;20593;-69
2021/04/11 06:17:43;;;;;;;6.03;3.70;;;12.10;96.70;;;;;;5053343;28;20728;-69
2021/04/11 06:20:10;;;;;;;7.87;3.43;;;12.20;96.30;;;;;;5053751;28;20179;-67
2021/04/11 06:22:53;;;;;;;6.77;3.40;;;12.30;95.80;;;;;;5053302;28;20572;-68
2021/04/11 06:25:56;;;;;;;4.63;3.10;;;12.40;95.70;;;;;;5053713;28;20636;-67
2021/04/11 06:28:48;;;;;;;5.43;3.33;;;12.60;95.00;;;;;;5053851;28;20269;-69
2021/04/11 06:31:22;;;;;;;7.17;3.40;;;12.70;94.90;;;;;;5053729;28;20175;-69
2021/04/11 06:33:52;;;;;;;3.80;2.53;;;12.90;94.10;;;;;;5035720;28;20179;-68
2021/04/11 06:36:23;;;;;;;5.27;2.60;;;13.10;93.80;;;;;;5033517;28;20172;-69
2021/04/11 06:38:56;;;;;;;5.93;2.10;;;13.30;93.10;;;;;;5033309;28;20567;-68
2021/04/11 06:41:50;;;;;;;3.20;2.03;;;13.40;91.40;;;;;;5037513;28;20664;-67
2021/04/11 06:44:48;;;;;;;6.83;2.03;;;13.60;91.90;;;;;;5053196;28;20205;-69
2021/04/11 06:47:39;;;;;;;4.17;2.20;;;13.60;91.70;;;;;;5053085;28;20210;-68
2021/04/11 06:50:26;;;;;;;7.40;2.13;;;13.60;92.10;;;;;;5040458;28;20175;-67
2021/04/11 06:53:14;;;;;;;3.37;1.63;;;13.70;91.10;;;;;;5053156;28;20175;-70
2021/04/11 06:55:54;;;;;;;2.80;1.40;;;13.70;90.30;;;;;;5053010;28;20262;-70
2021/04/11 06:58:49;;;;;;;3.37;1.70;;;13.80;90.30;;;;;;5052643;28;20217;-68
2021/04/11 07:01:35;;;;;;;3.53;1.83;;;13.80;90.20;;;;;;4998396;28;20193;-67
2021/04/11 07:04:22;;;;;;;5.90;1.90;;;13.90;88.60;;;;;;5052734;28;20171;-68
2021/04/11 07:07:06;;;;;;;3.67;1.77;;;13.90;89.10;;;;;;5053018;28;20241;-68
2021/04/11 07:10:05;;;;;;;2.43;1.57;;;14.00;88.80;;;;;;5052865;28;20175;-70
2021/04/11 07:13:06;;;;;;;4.33;1.70;;;14.10;89.40;;;;;;5052711;28;20178;-67
2021/04/11 07:16:07;;;;;;;2.03;1.60;;;14.30;87.30;;;;;;5052318;28;20191;-69
2021/04/11 07:18:33;;;;;;;8.47;1.73;;;14.40;86.80;;;;;;5052357;28;20237;-69
2021/04/11 07:21:31;;;;;;;3.13;1.60;;;14.50;86.00;;;;;;5053005;28;20202;-66
2021/04/11 07:24:21;;;;;;;2.37;1.20;;;14.60;87.00;;;;;;5051576;28;20175;-67
2021/04/11 07:26:59;;;;;;;5.07;1.60;;;14.60;86.10;;;;;;5052415;28;20653;-67
2021/04/11 07:29:30;;;;;;;2.33;1.30;;;14.70;82.90;;;;;;5052407;28;20632;-67
2021/04/11 07:32:33;;;;;;;3.40;1.30;;;14.80;82.30;;;;;;5052125;28;20179;-66
2021/04/11 07:35:14;;;;;;;2.23;1.20;;;14.80;82.70;;;;;;5052515;28;20178;-69
2021/04/11 07:38:01;;;;;;;3.13;1.40;;;14.80;81.90;;;;;;5051967;28;20225;-69
2021/04/11 07:40:39;;;;;;;2.43;1.13;;;14.90;81.40;;;;;;5052502;28;20189;-68
2021/04/11 07:43:07;;;;;;;3.87;1.20;;;15.00;81.40;;;;;;5051891;28;20202;-68
2021/04/11 07:45:36;;;;;;;4.27;1.40;;;15.10;80.10;;;;;;5052116;28;20183;-69
2021/04/11 07:48:43;;;;;;;3.10;1.20;;;15.00;79.80;;;;;;5051901;28;20269;-68
2021/04/11 07:51:09;;;;;;;2.70;1.30;;;14.90;79.70;;;;;;4988703;28;20198;-69
2021/04/11 07:54:12;;;;;;;3.77;1.40;;;14.90;81.80;;;;;;5052011;28;20246;-67
2021/04/11 07:57:08;;;;;;;1.77;1.00;;;14.90;82.50;;;;;;5051465;28;20206;-68
2021/04/11 08:00:07;;;;;;;1.43;0.83;;;15.00;81.90;;;;;;5051845;28;20649;-68
2021/04/11 08:02:42;;;;;;;2.37;1.13;;;15.10;81.10;;;;;;5051755;28;20617;-66
2021/04/11 08:05:13;;;;;;;3.13;1.00;;;15.20;80.40;;;;;;5051265;28;20189;-68
2021/04/11 08:07:48;;;;;;;2.77;1.00;;;15.40;78.40;;;;;;5050558;28;20234;-68
2021/04/11 08:10:45;;;;;;;3.07;1.30;;;15.50;79.50;;;;;;5051612;28;20232;-70
2021/04/11 08:13:31;;;;;;;2.40;1.03;;;15.80;77.80;;;;;;5051034;28;20178;-66
2021/04/11 08:16:31;;;;;;;2.60;1.10;;;15.80;77.20;;;;;;5052201;28;20187;-68
2021/04/11 08:19:05;;;;;;;2.97;1.03;;;16.00;77.00;;;;;;5052075;28;20186;-68
2021/04/11 08:21:41;;;;;;;3.63;1.10;;;15.90;75.50;;;;;;5052010;28;20621;-66
2021/04/11 08:24:15;;;;;;;2.97;1.30;;;16.10;76.30;;;;;;5052208;28;20648;-68
2021/04/11 08:27:05;;;;;;;5.60;2.03;;;16.20;74.50;;;;;;5051972;28;20655;-69
2021/04/11 08:30:00;;;;;;;2.33;1.20;;;16.40;74.20;;;;;;5051890;28;20201;-68
2021/04/11 08:33:03;;;;;;;1.67;1.00;;;16.30;73.50;;;;;;5051983;28;20171;-68
2021/04/11 08:35:45;;;;;;;2.40;1.13;;;16.20;75.20;;;;;;5051949;28;20186;-68
2021/04/11 08:38:27;;;;;;;3.20;1.10;;;16.30;75.10;;;;;;5033525;28;20198;-68
2021/04/11 08:41:31;;;;;;;1.97;1.00;;;16.40;74.90;;;;;;5051312;28;20182;-68
2021/04/11 08:44:14;;;;;;;1.10;0.80;;;16.50;73.50;;;;;;5051820;28;20182;-69
2021/04/11 08:47:10;;;;;;;3.00;1.20;;;16.60;74.40;;;;;;5051531;28;20175;-67
2021/04/11 08:49:46;;;;;;;1.27;0.77;;;16.60;73.50;;;;;;5051550;28;20721;-67
2021/04/11 08:52:40;;;;;;;4.37;1.10;;;16.60;74.00;;;;;;5050678;28;20175;-68
2021/04/11 08:55:21;;;;;;;2.97;1.00;;;16.60;72.10;;;;;;5050354;28;20224;-68
2021/04/11 08:58:15;;;;;;;1.10;1.00;;;16.60;73.70;;;;;;5051010;28;20252;-67
2021/04/11 09:01:11;;;;;;;1.03;0.80;;;16.70;72.40;;;;;;5050618;28;20172;-67
2021/04/11 09:04:12;;;;;;;2.80;1.10;;;16.60;72.50;;;;;;5042895;28;20265;-70
2021/04/11 09:06:44;;;;;;;1.63;0.90;;;16.50;73.30;;;;;;5047561;28;20352;-69
2021/04/11 09:09:33;;;;;;;3.57;1.20;;;16.30;72.70;;;;;;5050807;28;20689;-67
2021/04/11 09:12:16;;;;;;;3.37;1.00;;;16.30;74.20;;;;;;5050980;28;20266;-68
2021/04/11 09:14:51;;;;;;;1.50;0.83;;;16.20;74.20;;;;;;5050971;28;20177;-69
2021/04/11 09:17:28;;;;;;;2.93;1.07;;;16.20;74.00;;;;;;5050563;28;20200;-68
2021/04/11 09:20:04;;;;;;;3.50;0.90;;;16.20;74.90;;;;;;5049263;28;20178;-68
2021/04/11 09:22:42;;;;;;;3.43;1.23;;;16.10;75.00;;;;;;5050875;28;20228;-70
2021/04/11 09:25:23;;;;;;;3.07;1.30;;;16.10;75.60;;;;;;5049589;28;20175;-68
2021/04/11 09:28:06;;;;;;;3.23;1.23;;;15.90;75.50;;;;;;5050796;28;20270;-68
2021/04/11 09:31:00;;;;;;;2.50;1.00;;;15.90;75.70;;;;;;5050652;28;20174;-69
2021/04/11 09:33:25;;;;;;;2.27;1.37;;;15.80;76.50;;;;;;5050403;28;20179;-67
2021/04/11 09:36:15;;;;;;;2.10;1.10;;;15.70;77.20;;;;;;5050628;28;20202;-67
2021/04/11 09:39:19;;;;;;;2.97;1.03;;;15.70;77.60;;;;;;5050578;28;20550;-69
2021/04/11 09:42:16;;;;;;;1.70;1.10;;;15.60;78.30;;;;;;5050542;28;20178;-68
2021/04/11 09:45:02;;;;;;;1.40;1.10;;;15.40;78.80;;;;;;5050464;28;20194;-68
2021/04/11 09:47:45;;;;;;;2.00;1.20;;;15.30;78.50;;;;;;5050503;28;20190;-68
2021/04/11 09:50:45;;;;;;;3.77;1.60;;;15.30;79.00;;;;;;5050377;28;20266;-68
2021/04/11 09:53:48;;;;;;;3.00;1.50;;;15.20;79.60;;;;;;5050470;28;20182;-67
2021/04/11 09:56:38;;;;;;;2.53;1.63;;;15.10;81.40;;;;;;5050355;28;20230;-66
2021/04/11 09:59:09;;;;;;;3.03;1.57;;;15.10;81.20;;;;;;5050407;28;20189;-69
2021/04/11 10:01:52;;;;;;;6.07;1.53;;;15.20;81.70;;;;;;5050632;28;20175;-68
2021/04/11 10:04:51;;;;;;;2.23;1.33;;;15.10;80.80;;;;;;5050445;28;20197;-66
2021/04/11 10:07:25;;;;;;;2.93;1.53;;;15.10;81.10;;;;;;5036115;28;20218;-68
2021/04/11 10:10:20;;;;;;;2.30;1.50;;;15.20;80.80;;;;;;5030477;28;20175;-69
2021/04/11 10:13:25;;;;;;;5.23;1.40;;;15.20;81.40;;;;;;5041282;28;20167;-69
2021/04/11 10:16:21;;;;;;;2.20;1.70;;;15.30;81.10;;;;;;4943006;28;20182;-69
2021/04/11 10:19:05;;;;;;;3.37;1.47;;;15.40;78.70;;;;;;5039472;28;20194;-68
2021/04/11 10:21:58;;;;;;;1.93;1.20;;;15.40;79.10;;;;;;5050070;28;20245;-67
2021/04/11 10:24:40;;;;;;;2.97;1.27;;;15.40;79.10;;;;;;5050088;28;20274;-69
2021/04/11 10:27:09;;;;;;;2.60;1.63;;;15.30;80.20;;;;;;5050129;28;20525;-69
2021/04/11 10:29:36;;;;;;;3.93;2.07;;;15.30;79.40;;;;;;5050018;28;20540;-70
2021/04/11 10:32:25;;;;;;;12.40;2.40;;;15.30;79.50;;;;;;5049807;28;20636;-69
2021/04/11 10:35:10;;;;;;;2.73;1.63;;;15.20;80.60;;;;;;5032060;28;20203;-69
2021/04/11 10:37:46;;;;;;;2.17;1.37;;;15.10;81.40;;;;;;5033902;28;20200;-68
2021/04/11 10:40:18;;;;;;;2.13;1.40;;;15.00;82.30;;;;;;5033573;28;20176;-68
2021/04/11 10:42:59;;;;;;;3.13;1.47;;;15.00;84.10;;;;;;5033612;28;20168;-68
2021/04/11 10:45:51;;;;;;;2.57;1.13;;;15.10;85.20;;;;;;5033665;28;20241;-67
2021/04/11 10:48:22;;;;;;;3.47;1.33;;;15.10;86.10;;;;;;5033424;28;20194;-68
2021/04/11 10:51:19;;;;;;;2.67;1.20;;;14.90;85.40;;;;;;5033487;28;20534;-68
2021/04/11 10:53:57;;;;;;;3.63;1.20;;;15.00;86.40;;;;;;5033179;28;20210;-69
2021/04/11 10:56:31;;;;;;;1.50;1.40;;;15.10;85.10;;;;;;5033604;28;20175;-67
2021/04/11 10:59:16;;;;;;;2.40;1.17;;;15.40;85.60;;;;;;5033161;28;20218;-67
2021/04/11 11:01:54;;;;;;;3.67;1.40;;;15.60;84.00;;;;;;5046399;28;20221;-69
2021/04/11 11:04:38;;;;;;;1.17;0.97;;;15.90;81.90;;;;;;5052825;28;20175;-69
2021/04/11 11:07:09;;;;;;;1.43;1.07;;;15.80;80.00;;;;;;5053096;28;20685;-68
2021/04/11 11:10:01;;;;;;;2.47;1.13;;;15.60;82.60;;;;;;5052815;28;20179;-69
2021/04/11 11:12:51;;;;;;;3.30;1.50;;;15.50;82.90;;;;;;5052614;28;20190;-69
2021/04/11 11:15:30;;;;;;;3.27;1.03;;;15.10;85.30;;;;;;5052466;28;20175;-70
2021/04/11 11:18:27;;;;;;;2.23;1.33;;;15.10;86.20;;;;;;5052946;28;20544;-68
2021/04/11 11:21:05;;;;;;;3.90;1.50;;;15.10;87.10;;;;;;5052518;28;20246;-69
2021/04/11 11:23:56;;;;;;;3.13;1.43;;;15.40;86.40;;;;;;5052516;28;20182;-69
2021/04/11 11:26:50;;;;;;;1.80;1.10;;;15.60;84.80;;;;;;5052400;28;20167;-70
2021/04/11 11:29:37;;;;;;;2.63;1.20;;;15.80;82.10;;;;;;5051912;28;20202;-70
2021/04/11 11:32:25;;;;;;;2.00;1.10;;;15.70;83.10;;;;;;5052924;28;20530;-69
2021/04/11 11:35:04;;;;;;;1.43;0.90;;;15.70;81.70;;;;;;5052565;28;20178;-69
2021/04/11 11:37:55;;;;;;;1.67;1.13;;;15.50;83.20;;;;;;5052747;28;20274;-67
2021/04/11 11:41:07;;;;;;;1.97;1.30;;;15.70;84.70;;;;;;5052861;28;20220;-67
2021/04/11 11:43:54;;;;;;;1.50;1.07;;;15.80;83.40;;;;;;5029859;28;20278;-68
2021/04/11 11:46:29;;;;;;;2.00;0.93;;;15.90;83.50;;;;;;5032954;28;20719;-67
2021/04/11 11:49:04;;;;;;;1.70;0.97;;;15.80;82.40;;;;;;5034195;28;20171;-68
2021/04/11 11:51:48;;;;;;;1.73;1.30;;;15.70;83.90;;;;;;5042745;28;20171;-67
2021/04/11 11:54:32;;;;;;;4.10;1.50;;;15.70;83.90;;;;;;5052726;28;20225;-69
2021/04/11 11:57:19;;;;;;;2.83;1.53;;;15.60;83.80;;;;;;5032794;28;20203;-68
2021/04/11 12:00:04;;;;;;;2.83;1.30;;;15.70;84.50;;;;;;5051405;28;20181;-70
2021/04/11 12:02:32;;;;;;;1.63;0.90;;;15.80;83.40;;;;;;5052239;28;20171;-68
2021/04/11 12:05:09;;;;;;;2.70;1.20;;;15.70;83.50;;;;;;5052298;28;20531;-70
2021/04/11 12:07:55;;;;;;;2.70;1.30;;;15.60;84.00;;;;;;5052577;28;20702;-68
2021/04/11 12:10:38;;;;;;;3.00;1.10;;;15.70;85.10;;;;;;5052176;28;20258;-71
2021/04/11 12:13:20;;;;;;;3.17;1.20;;;15.70;83.50;;;;;;5051989;28;20186;-67
2021/04/11 12:16:04;;;;;;;1.47;1.10;;;15.80;83.60;;;;;;5052291;28;20186;-70
2021/04/11 12:18:32;;;;;;;2.53;1.13;;;15.70;83.50;;;;;;5052032;28;20206;-67
2021/04/11 12:21:19;;;;;;;1.80;1.07;;;15.70;84.40;;;;;;5051455;28;20232;-68
2021/04/11 12:23:56;;;;;;;3.70;1.17;;;15.60;83.80;;;;;;5051477;28;20175;-68
2021/04/11 12:26:24;;;;;;;1.03;0.90;;;15.50;85.60;;;;;;5051332;28;20667;-68
2021/04/11 12:28:51;;;;;;;2.07;1.27;;;15.30;86.30;;;;;;5049998;28;20537;-68
2021/04/11 12:31:40;;;;;;;2.17;1.03;;;15.10;88.10;;;;;;5031384;28;20176;-69
2021/04/11 12:34:14;;;;;;;1.43;0.90;;;14.90;88.30;;;;;;5038466;28;20182;-68
2021/04/11 12:36:44;;;;;;;1.90;1.10;;;15.00;89.30;;;;;;5051491;28;20527;-68
2021/04/11 12:39:23;;;;;;;1.77;1.00;;;15.10;89.80;;;;;;5051841;28;20586;-70
2021/04/11 12:42:16;;;;;;;1.67;1.10;;;15.20;88.70;;;;;;5051825;28;20186;-66
2021/04/11 12:45:03;;;;;;;6.17;3.23;;;15.20;89.10;;;;;;5051745;28;20179;-67
2021/04/11 12:48:05;;;;;;;3.70;1.60;;;15.20;89.50;;;;;;5032310;28;20189;-68
2021/04/11 12:50:41;;;;;;;2.20;1.87;;;15.20;88.80;;;;;;5051595;28;20221;-68
2021/04/11 12:53:14;;;;;;;3.83;3.10;;;15.10;90.00;;;;;;5051108;28;20202;-68
2021/04/11 12:55:50;;;;;;;3.73;1.53;;;15.00;90.20;;;;;;5049259;28;20171;-68
2021/04/11 12:59:01;;;;;;;3.90;3.60;;;14.90;90.40;;;;;;5031252;28;20203;-67
2021/04/11 13:01:40;;;;;;;2.37;1.50;;;14.70;91.30;;;;;;5025272;28;20179;-69
2021/04/11 13:04:41;;;;;;;2.37;0.90;;;14.70;91.50;;;;;;5051299;28;20220;-69
2021/04/11 13:07:28;;;;;;;3.03;1.07;;;14.60;91.50;;;;;;5045651;28;20219;-66
2021/04/11 13:10:17;;;;;;;1.83;0.80;;;14.50;91.90;;;;;;5031852;28;20182;-69
2021/04/11 13:12:57;;;;;;;2.60;0.60;;;14.50;92.20;;;;;;5050405;28;20175;-69
2021/04/11 13:15:37;;;;;;;1.97;0.80;;;14.30;94.20;;;;;;5050386;28;20208;-67
2021/04/11 13:18:17;;;;;;;1.83;1.20;;;14.20;95.50;;;;;;5050586;28;20548;-69
2021/04/11 13:21:21;;;;;;;2.40;0.70;;;14.20;97.70;;;;;;5050785;28;20644;-69
2021/04/11 13:23:53;;;;;;;1.93;0.80;;;14.20;99.50;;;;;;5050832;28;20183;-68
2021/04/11 13:26:27;;;;;;;0.60;0.60;;;14.10;99.40;;;;;;5050762;28;20568;-69
2021/04/11 13:29:06;;;;;;;1.00;0.80;;;14.00;98.80;;;;;;5050505;28;20197;-68
2021/04/11 13:31:55;;;;;;;0.63;0.53;;;14.10;99.90;;;;;;5050523;28;20194;-68
2021/04/11 13:34:53;;;;;;;0.60;0.60;;;14.00;99.10;;;;;;5042166;28;20191;-68
2021/04/11 13:37:18;;;;;;;1.23;0.70;;;13.90;99.90;;;;;;5013910;28;20254;-68
2021/04/11 13:39:50;;;;;;;0.77;0.60;;;13.80;99.90;;;;;;5030997;28;20253;-68
2021/04/11 13:42:56;;;;;;;1.27;0.90;;;13.70;99.90;;;;;;5049690;28;20185;-67
2021/04/11 13:45:38;;;;;;;1.17;0.97;;;13.60;99.90;;;;;;5050724;28;20193;-68
2021/04/11 13:48:28;;;;;;;1.10;1.00;;;13.60;99.90;;;;;;5050792;28;20236;-67
2021/04/11 13:51:19;;;;;;;3.27;1.00;;;13.60;99.90;;;;;;5050715;28;20182;-68